Novokuybyshevsk, Russia
Current Conditions -  °F | °C
As of 9:30 PM on Sunday 23 Nov 2014 (Local Time) from UWWW Reporting Station
Overcast Overcast  
Wind Chill: -2°   Ceiling: 10000
Heat Index: 14°   Visibility: 6mi
Dew Point:   Wind: 16mph
Humidity: 67%   Direction: 10°N
Pressure: 30.48"   Gusts: NA
Location:  53.09°N, 49.88°E
Report Text: UWWW 231730Z 01007MPS 9999 SCT026 OVC100 M10/M15 Q1032 0541015515//99// NOSIG RMK QFE761/1014
Loading
Personal Weather Stations






























Interactive Weather Map New forecast layout! Learn more

10-Day Weather Forecast

Advertisements
Track Severe Weather on mobile